Time;durP1;ratioP1;P1;durP2;ratioP2;P2;SDS_P1;SDS_P2;PMS_P1;PMS_P2;Temp;Humidity;BMP_temperature;BMP_pressure;BME280_temperature;BME280_humidity;BME280_pressure;Samples;Min_cycle;Max_cycle;Signal;HPM_P1;HPM_P2
2022/12/03 00:01:37;;;;;;;9.73;5.65;;;;;;;18.82;37.70;102213.22;5031422;28;20492;-71
2022/12/03 00:04:03;;;;;;;7.90;5.07;;;;;;;18.80;37.91;102217.75;5020497;28;20112;-70
2022/12/03 00:06:28;;;;;;;8.93;5.70;;;;;;;18.79;37.79;102205.47;5030814;28;20758;-70
2022/12/03 00:08:53;;;;;;;7.43;5.03;;;;;;;18.74;37.75;102199.66;5025384;28;20084;-71
2022/12/03 00:11:19;;;;;;;8.43;5.65;;;;;;;18.78;37.58;102208.22;5022579;28;20037;-75
2022/12/03 00:13:44;;;;;;;7.35;5.13;;;;;;;18.77;37.76;102209.16;5020519;28;20083;-71
2022/12/03 00:16:10;;;;;;;7.82;5.68;;;;;;;18.74;37.80;102204.94;5020566;28;20060;-69
2022/12/03 00:18:35;;;;;;;8.50;5.75;;;;;;;18.71;37.50;102210.41;5027921;28;20393;-71
2022/12/03 00:21:00;;;;;;;8.52;5.65;;;;;;;18.72;37.52;102203.31;5023535;28;20044;-71
2022/12/03 00:23:25;;;;;;;7.65;5.53;;;;;;;18.71;37.66;102201.59;5025979;28;20052;-69
2022/12/03 00:25:51;;;;;;;8.52;6.10;;;;;;;18.63;37.49;102194.19;5030250;28;20151;-72
2022/12/03 00:28:16;;;;;;;7.07;5.10;;;;;;;18.65;37.59;102189.66;5026716;28;20393;-73
2022/12/03 00:30:41;;;;;;;7.47;4.93;;;;;;;18.64;37.51;102188.81;5024758;28;20103;-69
2022/12/03 00:33:06;;;;;;;8.83;5.50;;;;;;;18.55;37.25;102178.81;5030125;28;20312;-71
2022/12/03 00:35:32;;;;;;;8.68;5.75;;;;;;;18.60;37.36;102186.44;5021289;28;20278;-69
2022/12/03 00:37:57;;;;;;;8.80;6.30;;;;;;;18.61;37.69;102194.28;5020824;28;20045;-75
2022/12/03 00:40:22;;;;;;;7.40;5.35;;;;;;;18.59;37.41;102184.75;5032911;28;20376;-73
2022/12/03 00:42:48;;;;;;;8.23;5.38;;;;;;;18.58;37.45;102191.84;5025259;28;20033;-70
2022/12/03 00:45:13;;;;;;;8.25;5.78;;;;;;;18.54;37.47;102181.56;5035317;28;20144;-71
2022/12/03 00:47:38;;;;;;;8.73;5.10;;;;;;;18.54;37.32;102186.84;5013096;28;20432;-70
2022/12/03 00:50:05;;;;;;;8.25;5.75;;;;;;;18.54;37.57;102181.56;5022755;28;20125;-70
2022/12/03 00:52:30;;;;;;;7.30;5.38;;;;;;;18.53;37.63;102183.31;5031129;28;20048;-70
2022/12/03 00:54:55;;;;;;;7.82;5.65;;;;;;;18.52;37.25;102192.22;5041026;28;20401;-71
2022/12/03 00:57:20;;;;;;;8.10;5.60;;;;;;;18.50;37.32;102188.81;5034789;28;20481;-74
2022/12/03 00:59:46;;;;;;;8.00;5.73;;;;;;;18.49;37.70;102184.47;5024659;28;20033;-71
2022/12/03 01:02:11;;;;;;;7.43;5.47;;;;;;;18.45;37.58;102186.47;5029522;28;20774;-70
2022/12/03 01:04:36;;;;;;;7.82;5.60;;;;;;;18.48;37.55;102191.56;5025556;28;20290;-72
2022/12/03 01:07:02;;;;;;;7.67;5.40;;;;;;;18.46;37.69;102187.31;5029657;28;20044;-70
2022/12/03 01:09:27;;;;;;;7.85;5.47;;;;;;;18.44;37.68;102192.66;5023612;28;20565;-70
2022/12/03 01:11:52;;;;;;;7.53;5.43;;;;;;;18.44;37.63;102182.13;5023123;28;20116;-72
2022/12/03 01:14:18;;;;;;;8.47;5.57;;;;;;;18.46;37.67;102182.03;5027587;28;20263;-71
2022/12/03 01:16:45;;;;;;;8.70;5.40;;;;;;;18.45;37.57;102185.59;5026482;28;20627;-71
2022/12/03 01:19:15;;;;;;;8.00;5.25;;;;;;;18.40;37.70;102172.66;5026123;28;20474;-69
2022/12/03 01:21:41;;;;;;;8.32;5.40;;;;;;;18.44;37.29;102183.91;5021818;28;20025;-72
2022/12/03 01:24:07;;;;;;;7.95;5.53;;;;;;;18.41;37.57;102177.03;5028167;28;20030;-73
2022/12/03 01:26:32;;;;;;;7.95;5.53;;;;;;;18.39;37.43;102176.28;5031041;28;20033;-73
2022/12/03 01:28:57;;;;;;;8.15;5.80;;;;;;;18.42;37.32;102183.13;5025865;28;20489;-69
2022/12/03 01:34:20;;;;;;;7.40;5.30;;;;;;;18.40;37.50;102179.75;4963391;28;1038734;-70
2022/12/03 01:36:46;;;;;;;8.45;5.70;;;;;;;18.39;37.46;102186.84;5028301;28;20148;-70
2022/12/03 01:39:11;;;;;;;7.90;5.78;;;;;;;18.36;37.48;102179.09;5014167;28;20037;-71
2022/12/03 01:41:37;;;;;;;8.77;5.93;;;;;;;18.35;37.41;102181.84;5024392;28;20031;-71
2022/12/03 01:44:21;;;;;;;8.23;5.40;;;;;;;18.33;37.53;102175.81;5027716;28;20120;-70
2022/12/03 01:46:48;;;;;;;8.65;5.80;;;;;;;18.32;37.17;102174.94;5026520;28;20776;-71
2022/12/03 01:49:17;;;;;;;7.97;5.80;;;;;;;18.29;37.33;102169.84;5038426;28;20782;-72
2022/12/03 01:51:44;;;;;;;9.25;6.05;;;;;;;18.33;37.19;102176.66;5031230;28;20022;-72
2022/12/03 01:54:16;;;;;;;9.13;6.13;;;;;;;18.31;37.52;102178.53;5030302;28;20045;-70
2022/12/03 01:56:42;;;;;;;7.95;5.45;;;;;;;18.29;37.20;102170.72;5034148;28;20060;-70
2022/12/03 01:59:11;;;;;;;7.95;5.82;;;;;;;18.27;37.25;102161.19;5035509;28;20461;-74
2022/12/03 02:01:37;;;;;;;7.60;5.38;;;;;;;18.27;37.12;102167.31;5033790;28;20038;-73
2022/12/03 02:04:02;;;;;;;7.20;5.57;;;;;;;18.26;37.32;102167.38;5027779;28;20044;-70
2022/12/03 02:06:28;;;;;;;8.88;5.78;;;;;;;18.27;37.12;102174.38;5029204;28;20266;-70
2022/12/03 02:08:58;;;;;;;8.70;5.97;;;;;;;18.26;37.29;102170.91;5029323;28;20033;-71
2022/12/03 02:11:36;;;;;;;8.00;5.60;;;;;;;18.24;37.13;102158.72;5028532;28;20499;-70
2022/12/03 02:14:06;;;;;;;8.18;5.68;;;;;;;18.24;37.19;102166.66;5023510;28;20092;-73
2022/12/03 02:16:34;;;;;;;8.85;5.88;;;;;;;18.22;36.98;102164.09;5013320;28;20064;-72
2022/12/03 02:19:00;;;;;;;8.43;5.93;;;;;;;18.23;37.20;102170.22;5031186;28;20034;-71
2022/12/03 02:21:28;;;;;;;9.55;6.18;;;;;;;18.23;36.96;102165.81;5028022;28;20179;-72
2022/12/03 02:24:18;;;;;;;8.02;5.40;;;;;;;18.22;37.24;102164.09;5031289;28;20033;-69
2022/12/03 02:26:43;;;;;;;8.57;5.93;;;;;;;18.22;37.31;102157.97;5030250;28;20041;-69
2022/12/03 02:29:09;;;;;;;8.68;5.60;;;;;;;18.20;37.32;102162.47;5024560;28;20025;-69
2022/12/03 02:31:34;;;;;;;8.68;5.60;;;;;;;18.21;37.12;102161.56;5021838;28;20037;-74
2022/12/03 02:34:05;;;;;;;8.45;5.70;;;;;;;18.18;37.13;102156.47;5033027;28;20029;-73
2022/12/03 02:36:30;;;;;;;9.07;5.97;;;;;;;18.18;37.21;102159.09;5023156;28;20045;-71
2022/12/03 02:38:56;;;;;;;8.52;5.45;;;;;;;18.15;37.22;102151.38;5029677;28;20051;-72
2022/12/03 02:44:07;;;;;;;7.70;5.75;;;;;;;18.17;37.30;102160.06;5025885;28;20235;-72
2022/12/03 02:46:33;;;;;;;8.98;6.18;;;;;;;18.16;37.54;102153.06;5026638;28;20042;-70
2022/12/03 02:48:59;;;;;;;8.73;6.20;;;;;;;18.15;37.23;102154.00;5032201;28;20091;-71
2022/12/03 02:51:25;;;;;;;8.80;5.85;;;;;;;18.15;37.07;102156.66;5022086;28;20033;-68
2022/12/03 02:53:53;;;;;;;8.60;6.15;;;;;;;18.11;37.34;102150.72;5029235;28;20394;-70
2022/12/03 02:56:21;;;;;;;8.15;5.93;;;;;;;18.10;37.12;102149.88;5023923;28;20519;-72
2022/12/03 02:58:50;;;;;;;7.88;5.70;;;;;;;18.10;36.87;102149.00;5026951;28;20128;-70
2022/12/03 03:01:16;;;;;;;8.57;5.82;;;;;;;18.08;37.24;102140.34;5021091;28;20037;-70
2022/12/03 03:03:43;;;;;;;8.10;5.22;;;;;;;18.08;37.29;102143.81;5025760;28;20033;-75
2022/12/03 03:06:08;;;;;;;8.13;5.70;;;;;;;18.10;37.16;102146.38;5025055;28;20374;-71
2022/12/03 03:08:36;;;;;;;9.63;6.43;;;;;;;18.06;36.88;102143.06;5022615;28;20473;-72
2022/12/03 03:11:02;;;;;;;8.23;5.70;;;;;;;18.01;37.10;102136.38;5024853;28;20033;-72
2022/12/03 03:13:29;;;;;;;8.20;5.93;;;;;;;18.04;36.89;102139.69;5028348;28;20036;-70
2022/12/03 03:15:55;;;;;;;8.35;5.82;;;;;;;18.07;37.17;102143.91;5021942;28;20437;-71
2022/12/03 03:18:20;;;;;;;9.63;6.20;;;;;;;18.05;36.82;102136.09;5023668;28;20036;-71
2022/12/03 03:20:46;;;;;;;8.98;5.72;;;;;;;18.04;36.90;102137.06;5024715;28;20042;-70
2022/12/03 03:23:11;;;;;;;8.18;5.95;;;;;;;18.06;37.02;102142.22;5022649;28;20030;-71
2022/12/03 03:25:42;;;;;;;8.53;5.80;;;;;;;18.03;37.02;102140.63;5029144;28;20155;-69
2022/12/03 03:28:08;;;;;;;8.85;5.95;;;;;;;18.04;37.08;102133.53;5021256;28;20037;-71
2022/12/03 03:30:35;;;;;;;8.65;6.28;;;;;;;18.02;37.36;102131.00;5037875;28;20047;-71
2022/12/03 03:33:01;;;;;;;8.43;6.20;;;;;;;17.95;36.74;102124.41;5033175;28;20029;-71
2022/12/03 03:35:26;;;;;;;8.68;6.10;;;;;;;18.00;37.04;102130.25;5028502;28;20111;-74
2022/12/03 03:37:52;;;;;;;9.77;5.55;;;;;;;17.97;37.13;102124.31;5028019;28;20032;-73
2022/12/03 03:40:20;;;;;;;9.57;6.72;;;;;;;18.00;37.32;102126.78;5030025;28;20394;-73
2022/12/03 03:42:46;;;;;;;9.25;6.50;;;;;;;17.97;36.90;102125.16;5025060;28;20029;-71
2022/12/03 03:45:11;;;;;;;8.70;6.15;;;;;;;17.98;36.85;102126.88;5002810;28;20033;-71
2022/12/03 03:47:37;;;;;;;8.70;5.90;;;;;;;17.99;37.10;102125.06;5021547;28;20041;-73
2022/12/03 03:50:03;;;;;;;7.93;5.97;;;;;;;18.00;36.83;102126.78;5021072;28;20343;-70
2022/12/03 03:52:29;;;;;;;8.43;6.13;;;;;;;17.96;36.78;102118.22;5021334;28;20434;-72
2022/12/03 03:54:54;;;;;;;9.45;6.38;;;;;;;17.98;37.18;102131.31;5023870;28;20045;-72
2022/12/03 03:57:19;;;;;;;8.52;6.40;;;;;;;17.97;36.77;102119.88;5023924;28;20120;-71
2022/12/03 03:59:45;;;;;;;9.55;5.97;;;;;;;17.95;37.03;102119.97;5020351;28;20068;-70
2022/12/03 04:02:17;;;;;;;8.43;6.03;;;;;;;17.93;36.90;102121.03;5022210;28;20060;-72
2022/12/03 04:04:43;;;;;;;9.02;6.20;;;;;;;17.95;36.57;102121.78;5025327;28;20099;-72
2022/12/03 04:07:08;;;;;;;8.30;5.80;;;;;;;17.91;36.71;102117.63;5021434;28;20930;-74
2022/12/03 04:09:33;;;;;;;8.35;6.35;;;;;;;17.92;36.65;102114.03;5019798;28;20120;-74
2022/12/03 04:14:42;;;;;;;8.18;5.97;;;;;;;17.92;37.02;102117.53;5021442;28;20397;-70
2022/12/03 04:17:07;;;;;;;8.67;5.77;;;;;;;17.93;36.42;102115.75;5020909;28;20029;-70
2022/12/03 04:19:33;;;;;;;8.77;6.47;;;;;;;17.92;36.85;102111.41;5029653;28;20419;-75
2022/12/03 04:24:42;;;;;;;8.10;6.07;;;;;;;17.90;36.97;102119.41;5036550;28;20438;-73
2022/12/03 04:29:51;;;;;;;8.73;6.00;;;;;;;17.90;36.58;102110.66;5030602;28;20461;-71
2022/12/03 04:37:44;;;;;;;9.45;6.68;;;;;;;17.89;36.88;102111.59;5029482;28;20548;-73
2022/12/03 04:40:59;;;;;;;9.07;6.25;;;;;;;17.88;36.91;102115.16;5031155;28;20029;-74
2022/12/03 04:42:54;;;;;;;8.98;6.15;;;;;;;17.89;36.75;102119.50;5025868;28;20029;-72
2022/12/03 04:45:23;;;;;;;8.95;6.22;;;;;;;17.87;36.96;102106.38;5038406;28;20060;-69
2022/12/03 04:47:48;;;;;;;8.63;6.03;;;;;;;17.85;37.02;102112.66;5040380;28;20044;-70
2022/12/03 04:50:13;;;;;;;8.45;5.90;;;;;;;17.83;36.58;102104.00;5003770;28;20040;-71
2022/12/03 04:52:39;;;;;;;8.98;6.45;;;;;;;17.86;36.68;102106.47;5019643;28;20051;-73
2022/12/03 04:55:04;;;;;;;8.48;6.10;;;;;;;17.86;36.60;102111.75;5023014;28;20028;-74
2022/12/03 04:57:29;;;;;;;8.27;5.75;;;;;;;17.83;36.64;102104.00;5020194;28;20062;-72
2022/12/03 04:59:55;;;;;;;9.30;6.70;;;;;;;17.83;36.51;102104.88;5025891;28;20030;-70
2022/12/03 05:02:20;;;;;;;9.00;6.40;;;;;;;17.81;36.55;102100.63;5023947;28;20079;-71
2022/12/03 05:04:45;;;;;;;9.43;6.60;;;;;;;17.83;36.82;102107.53;5020815;28;20041;-71
2022/12/03 05:07:11;;;;;;;9.13;6.45;;;;;;;17.81;36.94;102100.63;5024774;28;20462;-72
2022/12/03 05:09:36;;;;;;;8.95;6.32;;;;;;;17.81;36.78;102100.63;5028451;28;20095;-70
2022/12/03 05:12:02;;;;;;;8.35;6.20;;;;;;;17.78;36.84;102088.47;5018706;28;20041;-70
2022/12/03 05:14:27;;;;;;;8.38;5.97;;;;;;;17.81;36.93;102096.19;5021032;28;20025;-70
2022/12/03 05:16:53;;;;;;;9.50;6.80;;;;;;;17.80;36.45;102093.66;5020934;28;20104;-71
2022/12/03 05:19:18;;;;;;;8.98;6.40;;;;;;;17.81;36.81;102092.72;5026422;28;20061;-70
2022/12/03 05:21:43;;;;;;;8.38;6.20;;;;;;;17.80;36.85;102099.78;5030126;28;20040;-70
2022/12/03 05:24:09;;;;;;;9.00;6.50;;;;;;;17.73;36.48;102085.25;5026947;28;20056;-74
2022/12/03 05:26:34;;;;;;;10.68;6.57;;;;;;;17.75;36.30;102091.28;5025306;28;20432;-69
2022/12/03 05:28:59;;;;;;;9.52;6.75;;;;;;;17.77;36.50;102090.25;5026421;28;21019;-73
2022/12/03 05:31:25;;;;;;;9.93;6.82;;;;;;;17.77;36.85;102095.53;5026428;28;20048;-70
2022/12/03 05:33:50;;;;;;;9.07;6.55;;;;;;;17.75;36.96;102093.91;5023411;28;20603;-72
2022/12/03 05:36:15;;;;;;;8.27;6.50;;;;;;;17.76;36.76;102090.34;5033381;28;20049;-72
2022/12/03 05:38:41;;;;;;;9.07;6.25;;;;;;;17.76;36.90;102091.19;5030901;28;20028;-69
2022/12/03 05:42:52;;;;;;;9.00;6.43;;;;;;;17.75;36.65;102091.28;5024350;28;20060;-69
2022/12/03 05:43:51;;;;;;;9.15;6.22;;;;;;;17.74;36.40;102084.34;5025159;28;20267;-70
2022/12/03 05:46:17;;;;;;;8.63;6.03;;;;;;;17.76;36.65;102085.91;5035024;28;20528;-72
2022/12/03 05:48:42;;;;;;;8.48;5.63;;;;;;;17.78;36.87;102083.19;5037981;28;20037;-70
2022/12/03 05:51:07;;;;;;;9.30;5.63;;;;;;;17.75;37.04;102071.06;5042309;28;20044;-69
2022/12/03 05:53:32;;;;;;;8.27;5.97;;;;;;;17.82;37.45;102076.81;5031253;28;20044;-71
2022/12/03 05:55:58;;;;;;;7.47;5.00;;;;;;;17.86;37.11;102078.28;5035951;28;20055;-71
2022/12/03 05:58:23;;;;;;;6.60;4.72;;;;;;;17.90;37.01;102079.00;5031437;28;20357;-70
2022/12/03 06:00:48;;;;;;;7.17;4.93;;;;;;;17.92;36.85;102072.69;5032909;28;20032;-70
2022/12/03 06:03:13;;;;;;;8.15;5.20;;;;;;;18.01;36.83;102080.97;5027683;28;20282;-73
2022/12/03 06:05:39;;;;;;;7.63;5.03;;;;;;;18.05;37.02;102075.41;5031679;28;20033;-71
2022/12/03 06:08:04;;;;;;;7.85;5.03;;;;;;;18.10;36.83;102075.13;5028749;28;20365;-71
2022/12/03 06:10:29;;;;;;;6.93;5.05;;;;;;;18.13;37.04;102070.53;5036933;28;20082;-71
2022/12/03 06:12:55;;;;;;;8.20;5.13;;;;;;;18.18;36.99;102074.66;5024779;28;20037;-73
2022/12/03 06:15:20;;;;;;;6.55;4.32;;;;;;;18.20;36.65;102059.56;5032248;28;20465;-71
2022/12/03 06:17:46;;;;;;;7.10;4.68;;;;;;;18.21;36.77;102064.75;5027716;28;20033;-71
2022/12/03 06:20:14;;;;;;;8.55;5.22;;;;;;;18.23;36.70;102056.75;5022584;28;20115;-71
2022/12/03 06:22:39;;;;;;;7.47;5.10;;;;;;;18.27;36.67;102060.91;5033952;28;20030;-70
2022/12/03 06:25:05;;;;;;;6.88;4.70;;;;;;;18.29;36.93;102061.66;5028240;28;20083;-71
2022/12/03 06:27:30;;;;;;;7.82;5.20;;;;;;;18.31;36.94;102060.63;5030465;28;20067;-71
2022/12/03 06:29:56;;;;;;;7.60;4.97;;;;;;;18.33;36.72;102068.44;5029231;28;20478;-69
2022/12/03 06:32:21;;;;;;;7.33;4.93;;;;;;;18.31;36.59;102063.25;5032134;28;20262;-71
2022/12/03 06:34:46;;;;;;;8.03;5.00;;;;;;;18.27;36.49;102059.09;5007122;28;20288;-73
2022/12/03 06:37:11;;;;;;;7.53;5.03;;;;;;;18.36;36.69;102068.25;4992580;28;20259;-71
2022/12/03 06:39:36;;;;;;;7.35;4.93;;;;;;;18.40;36.38;102068.91;4992432;28;20345;-70
2022/12/03 06:42:02;;;;;;;6.87;4.57;;;;;;;18.42;36.75;102069.63;4993697;28;20029;-72
2022/12/03 06:44:27;;;;;;;6.70;4.93;;;;;;;18.41;36.75;102067.97;4993499;28;21137;-72
2022/12/03 06:46:52;;;;;;;8.00;5.00;;;;;;;18.42;36.40;102073.16;4993811;28;20027;-70
2022/12/03 06:49:18;;;;;;;7.47;4.70;;;;;;;18.45;36.63;102072.09;4992874;28;20041;-71
2022/12/03 06:51:43;;;;;;;7.35;5.10;;;;;;;18.44;36.63;102058.06;4992047;28;20299;-70
2022/12/03 06:54:08;;;;;;;7.53;4.95;;;;;;;18.45;36.81;102065.03;4993039;28;20030;-71
2022/12/03 06:56:34;;;;;;;7.37;4.77;;;;;;;18.49;36.50;102063.88;4992570;28;20041;-72
2022/12/03 06:58:59;;;;;;;7.85;4.78;;;;;;;18.49;36.45;102057.75;4992922;28;20751;-71
2022/12/03 07:01:24;;;;;;;7.68;4.88;;;;;;;18.52;36.29;102059.34;4993683;28;20080;-72
2022/12/03 07:03:50;;;;;;;7.25;4.88;;;;;;;18.52;36.41;102065.50;4991874;28;20031;-70
2022/12/03 07:06:15;;;;;;;6.90;4.68;;;;;;;18.56;36.67;102063.50;4991480;28;20101;-70
2022/12/03 07:08:40;;;;;;;7.45;5.07;;;;;;;18.56;36.69;102063.50;4992640;28;20581;-69
2022/12/03 07:11:29;;;;;;;7.32;4.80;;;;;;;18.57;36.74;102062.56;4993856;28;20033;-70
2022/12/03 07:13:54;;;;;;;7.60;4.82;;;;;;;18.55;36.49;102065.28;4993979;28;20505;-70
2022/12/03 07:16:19;;;;;;;6.70;4.60;;;;;;;18.54;36.70;102060.94;4991483;28;20027;-71
2022/12/03 07:18:45;;;;;;;7.20;4.50;;;;;;;18.55;36.63;102065.28;4993090;28;20670;-70
2022/12/03 07:21:10;;;;;;;8.75;4.95;;;;;;;18.58;36.49;102064.22;4992773;28;20113;-71
2022/12/03 07:23:35;;;;;;;7.60;4.78;;;;;;;18.56;36.75;102064.31;4992006;28;20912;-70
2022/12/03 07:26:00;;;;;;;7.57;4.83;;;;;;;18.57;36.76;102062.56;4993036;28;20489;-70
2022/12/03 07:28:26;;;;;;;7.40;5.03;;;;;;;18.57;36.73;102065.19;4992339;28;20327;-69
2022/12/03 07:30:51;;;;;;;7.00;4.80;;;;;;;18.48;36.78;102048.13;4991805;28;20073;-71
2022/12/03 07:33:16;;;;;;;7.68;5.05;;;;;;;18.55;36.43;102053.88;4992783;28;21444;-70
2022/12/03 07:35:42;;;;;;;7.87;5.20;;;;;;;18.57;36.64;102058.13;5020952;28;20059;-73
2022/12/03 07:38:07;;;;;;;7.13;4.70;;;;;;;18.53;36.56;102046.03;5024475;28;20329;-69
2022/12/03 07:40:32;;;;;;;7.43;5.13;;;;;;;18.59;36.68;102056.22;5036283;28;20278;-70
2022/12/03 07:42:57;;;;;;;6.93;5.10;;;;;;;18.57;36.57;102044.91;5032015;28;20340;-71
2022/12/03 07:45:22;;;;;;;7.15;4.82;;;;;;;18.62;36.85;102061.31;5032470;28;20297;-70
2022/12/03 07:47:48;;;;;;;7.68;5.38;;;;;;;18.63;36.83;102055.09;5029945;28;20103;-70
2022/12/03 07:50:13;;;;;;;7.90;4.70;;;;;;;18.67;37.13;102072.44;5025550;28;20450;-68
2022/12/03 07:52:38;;;;;;;7.10;4.85;;;;;;;18.63;37.38;102060.38;5022535;28;20037;-69
2022/12/03 07:55:04;;;;;;;7.50;4.73;;;;;;;18.67;37.02;102067.16;5021955;28;20029;-70
2022/12/03 07:57:29;;;;;;;8.18;5.20;;;;;;;18.70;37.11;102063.44;5040297;28;20920;-70
2022/12/03 07:59:55;;;;;;;7.97;5.03;;;;;;;18.71;37.19;102067.78;5033941;28;20037;-70
2022/12/03 08:02:20;;;;;;;8.37;5.40;;;;;;;18.70;37.10;102067.91;5026216;28;20478;-72
2022/12/03 08:04:45;;;;;;;9.40;5.55;;;;;;;18.71;37.24;102070.44;5035736;28;20285;-69
2022/12/03 08:07:10;;;;;;;7.53;5.33;;;;;;;18.72;37.04;102068.63;5030100;28;20037;-67
2022/12/03 08:09:39;;;;;;;7.57;5.10;;;;;;;18.71;37.07;102072.22;5041200;28;20254;-67
2022/12/03 08:12:14;;;;;;;9.23;5.03;;;;;;;18.68;37.10;102074.13;5039603;28;20313;-67
2022/12/03 08:14:40;;;;;;;8.13;5.15;;;;;;;18.66;37.12;102068.09;5029912;28;20032;-69
2022/12/03 08:17:11;;;;;;;9.05;5.45;;;;;;;18.68;37.04;102074.13;5029236;28;20025;-68
2022/12/03 08:19:36;;;;;;;8.02;5.90;;;;;;;18.72;36.82;102073.91;5040649;28;20473;-68
2022/12/03 08:22:01;;;;;;;9.13;5.43;;;;;;;18.70;37.07;102070.53;5040709;28;20048;-74
2022/12/03 08:24:28;;;;;;;8.63;5.50;;;;;;;18.69;36.70;102064.38;5035486;28;20141;-70
2022/12/03 08:26:55;;;;;;;7.65;5.10;;;;;;;18.75;37.08;102077.19;5030148;28;20043;-72
2022/12/03 08:29:20;;;;;;;8.55;5.25;;;;;;;18.77;36.92;102075.31;5027548;28;20021;-68
2022/12/03 08:31:53;;;;;;;9.77;5.77;;;;;;;18.74;36.79;102072.00;5032714;28;20385;-74
2022/12/03 08:34:21;;;;;;;8.27;5.38;;;;;;;18.66;37.05;102057.53;5034496;28;20258;-69
2022/12/03 08:36:51;;;;;;;8.35;4.88;;;;;;;18.74;37.10;102066.72;5022789;28;20026;-68
2022/12/03 08:39:34;;;;;;;8.88;5.28;;;;;;;18.79;36.93;102076.06;5020984;28;20049;-68
2022/12/03 08:45:27;;;;;;;9.40;5.63;;;;;;;18.85;36.91;102074.88;5032525;28;20040;-69
2022/12/03 08:47:58;;;;;;;9.03;5.67;;;;;;;18.87;36.81;102072.09;5041023;28;20102;-69
2022/12/03 08:50:27;;;;;;;8.93;5.22;;;;;;;18.88;37.14;102074.63;5040518;28;20075;-68
2022/12/03 08:52:58;;;;;;;7.97;4.97;;;;;;;18.88;37.19;102071.16;5038424;28;20043;-68
2022/12/03 08:55:37;;;;;;;8.73;4.80;;;;;;;18.91;37.35;102073.59;5028480;28;20033;-69
2022/12/03 08:58:22;;;;;;;10.68;5.35;;;;;;;18.92;37.31;102073.50;5040068;28;20095;-69
2022/12/03 09:00:51;;;;;;;8.80;5.45;;;;;;;18.90;37.54;102070.13;5033922;28;20414;-67
2022/12/03 09:03:18;;;;;;;9.13;4.85;;;;;;;18.89;37.42;102072.88;5026125;28;20128;-68
2022/12/03 09:05:43;;;;;;;9.77;5.38;;;;;;;18.90;37.54;102069.25;5043678;28;20374;-70
2022/12/03 09:08:08;;;;;;;7.32;4.75;;;;;;;18.92;37.66;102076.16;5037997;28;20040;-70
2022/12/03 09:10:34;;;;;;;9.93;4.65;;;;;;;18.94;37.61;102078.69;5033217;28;20092;-68
2022/12/03 09:12:59;;;;;;;7.82;4.90;;;;;;;18.92;37.76;102078.78;5024315;28;20041;-68
2022/12/03 09:15:24;;;;;;;7.50;4.60;;;;;;;18.92;37.44;102070.88;5041236;28;20029;-71
2022/12/03 09:17:49;;;;;;;7.60;4.80;;;;;;;18.92;37.39;102067.38;5028271;28;20274;-71
2022/12/03 09:20:15;;;;;;;8.30;4.77;;;;;;;18.93;37.54;102067.28;5025493;28;20033;-68
2022/12/03 09:22:40;;;;;;;9.15;5.22;;;;;;;18.94;37.66;102076.03;5024738;28;20278;-67
2022/12/03 09:25:06;;;;;;;8.47;4.57;;;;;;;18.93;37.59;102069.94;5025462;28;20029;-68
2022/12/03 09:27:31;;;;;;;7.75;4.95;;;;;;;18.97;37.53;102073.22;5026365;28;20258;-70
2022/12/03 09:29:57;;;;;;;8.18;4.63;;;;;;;18.97;37.70;102073.22;5033834;28;20129;-66
2022/12/03 09:32:22;;;;;;;9.32;4.88;;;;;;;18.96;37.46;102072.38;5028073;28;20397;-68
2022/12/03 09:34:48;;;;;;;8.75;5.13;;;;;;;18.99;37.50;102068.66;5035870;28;20391;-67
2022/12/03 09:37:13;;;;;;;7.82;4.90;;;;;;;19.02;37.48;102068.47;5034535;28;20591;-73
2022/12/03 09:39:38;;;;;;;8.32;4.82;;;;;;;19.05;37.39;102070.91;5035642;28;20075;-69
2022/12/03 09:42:04;;;;;;;7.67;5.07;;;;;;;19.07;37.45;102066.34;5033022;28;20563;-69
2022/12/03 09:44:32;;;;;;;9.65;5.25;;;;;;;19.08;37.55;102076.00;5026266;28;20270;-68
2022/12/03 09:46:59;;;;;;;9.13;5.20;;;;;;;19.07;37.61;102066.34;5016038;28;20367;-69
2022/12/03 09:49:25;;;;;;;8.23;4.68;;;;;;;19.10;37.88;102066.16;5032836;28;20029;-69
2022/12/03 09:51:54;;;;;;;9.18;5.25;;;;;;;19.11;37.83;102064.38;5025493;28;20048;-71
2022/12/03 09:54:25;;;;;;;11.13;4.90;;;;;;;19.10;37.73;102060.88;5031229;28;20048;-76
2022/12/03 09:56:52;;;;;;;8.48;5.05;;;;;;;19.12;38.00;102063.41;5024003;28;20033;-71
2022/12/03 09:59:19;;;;;;;8.88;4.85;;;;;;;19.10;37.84;102060.88;5011300;28;20061;-74
2022/12/03 10:01:45;;;;;;;8.52;4.90;;;;;;;19.07;38.13;102053.16;5023294;28;20029;-73
2022/12/03 10:04:10;;;;;;;10.50;5.15;;;;;;;19.05;38.06;102052.41;5008189;28;21041;-70
2022/12/03 10:06:36;;;;;;;10.32;4.57;;;;;;;19.03;37.84;102063.06;5027320;28;20028;-68
2022/12/03 10:09:06;;;;;;;9.02;5.18;;;;;;;19.05;38.08;102047.13;5021926;28;20103;-71
2022/12/03 10:11:34;;;;;;;10.95;5.10;;;;;;;19.13;37.93;102049.25;5019495;28;20584;-71
2022/12/03 10:13:59;;;;;;;8.98;4.80;;;;;;;19.19;38.35;102054.13;5027778;28;20473;-73
2022/12/03 10:16:25;;;;;;;11.15;5.75;;;;;;;19.23;39.64;102049.50;5029980;28;20052;-70
2022/12/03 10:18:55;;;;;;;9.77;5.03;;;;;;;19.23;39.13;102052.97;5022607;28;20033;-76
2022/12/03 10:21:44;;;;;;;12.05;5.72;;;;;;;19.24;39.27;102044.09;5026677;28;20060;-72
2022/12/03 10:24:24;;;;;;;12.55;6.00;;;;;;;19.24;39.27;102036.16;5029668;28;20902;-71
2022/12/03 10:26:51;;;;;;;10.65;5.38;;;;;;;19.21;39.70;102041.66;5024186;28;20040;-71
2022/12/03 10:29:20;;;;;;;13.75;6.20;;;;;;;19.22;39.42;102038.09;5031350;28;20377;-72
2022/12/03 10:31:54;;;;;;;11.27;5.15;;;;;;;19.19;39.64;102033.00;5030277;28;20112;-68
2022/12/03 10:34:32;;;;;;;9.35;5.50;;;;;;;19.20;39.56;102027.63;5026254;28;20043;-69
2022/12/03 10:37:14;;;;;;;13.90;5.82;;;;;;;19.20;38.96;102024.97;5020152;28;20033;-70
2022/12/03 10:39:55;;;;;;;10.65;5.95;;;;;;;19.16;38.90;102018.19;5027090;28;20036;-74
2022/12/03 10:42:21;;;;;;;10.52;5.30;;;;;;;19.18;39.05;102007.50;5019296;28;20041;-70
2022/12/03 10:44:46;;;;;;;10.57;5.63;;;;;;;19.15;39.04;102005.94;5021155;28;20119;-75
2022/12/03 10:47:13;;;;;;;9.35;5.35;;;;;;;19.14;39.08;101998.13;5023969;28;20488;-73
2022/12/03 10:49:40;;;;;;;13.45;5.78;;;;;;;19.14;39.23;102001.59;5027327;28;20040;-69
2022/12/03 10:52:12;;;;;;;10.95;6.07;;;;;;;19.13;38.86;101999.88;5030375;28;20083;-68
2022/12/03 10:54:37;;;;;;;10.93;5.88;;;;;;;19.17;38.83;102000.56;5031885;28;20504;-69
2022/12/03 10:57:03;;;;;;;9.60;5.53;;;;;;;19.12;38.79;101990.28;5027922;28;20044;-69
2022/12/03 10:59:32;;;;;;;9.75;5.75;;;;;;;19.10;38.89;101986.03;5028221;28;20044;-69
2022/12/03 11:01:57;;;;;;;8.88;5.15;;;;;;;19.10;38.81;101984.25;5022597;28;20061;-69
2022/12/03 11:04:27;;;;;;;9.25;5.40;;;;;;;19.10;38.76;101988.69;5029513;28;20065;-70
2022/12/03 11:06:54;;;;;;;10.30;5.22;;;;;;;19.06;38.76;101980.13;5031698;28;20037;-70
2022/12/03 11:09:25;;;;;;;9.70;5.68;;;;;;;19.01;38.79;101987.53;5022723;28;20079;-69
2022/12/03 11:11:51;;;;;;;10.77;6.13;;;;;;;18.94;38.94;101970.38;5026583;28;20420;-69
2022/12/03 11:14:49;;;;;;;9.23;5.30;;;;;;;19.02;38.64;101978.63;5027503;28;20355;-70
2022/12/03 11:17:42;;;;;;;9.13;5.45;;;;;;;18.96;37.93;101977.25;5035217;28;20035;-70
2022/12/03 11:20:10;;;;;;;10.45;5.85;;;;;;;18.94;38.00;101981.78;5032647;28;20610;-69
2022/12/03 11:22:44;;;;;;;10.18;5.43;;;;;;;18.92;38.30;101970.47;4995961;28;20037;-71
2022/12/03 11:25:27;;;;;;;8.82;5.65;;;;;;;18.93;38.55;101972.19;5028117;28;20055;-71
2022/12/03 11:28:14;;;;;;;8.07;5.05;;;;;;;18.93;38.27;101969.53;5014588;28;20157;-72
2022/12/03 11:30:57;;;;;;;11.05;6.30;;;;;;;18.88;38.48;101963.69;5033684;28;20037;-74
2022/12/03 11:33:32;;;;;;;10.10;5.72;;;;;;;18.92;38.42;101964.38;5030661;28;20053;-71
2022/12/03 11:36:04;;;;;;;9.30;5.30;;;;;;;18.90;38.21;101960.97;4996929;28;20476;-72
2022/12/03 11:38:35;;;;;;;11.20;6.00;;;;;;;18.86;38.36;101955.03;5028943;28;20087;-70
2022/12/03 11:41:14;;;;;;;9.27;5.97;;;;;;;18.87;38.01;101954.09;5032276;28;20033;-69
2022/12/03 11:43:51;;;;;;;10.02;5.90;;;;;;;18.86;37.95;101952.41;5030242;28;20544;-70
2022/12/03 11:46:19;;;;;;;10.00;5.97;;;;;;;18.84;37.85;101946.38;5025710;28;20037;-72
2022/12/03 11:48:48;;;;;;;12.88;6.97;;;;;;;18.81;37.67;101942.09;5029703;28;20469;-74